Aeroporto :
LOGIN :

Iscrizione | Disclaimer

   EN    FR    IT 

 










Sommario :    VFR   VFR Marginale   IFR   IFR Intensivo   IFR Molto Intensivo
Visibilità : 
Base nubi : 
>= 8 km
>= 3000ft
5 / 8 km
1000 / 3000 ft
1500m / 5 km
500 / 1000 ft
800 / 1500m
200 / 500 ft
< 800m
< 200 ft
Simboli :   Temporali  Nebbia  Neve Forte  Precipitazioni Forti  Vento > 20 kt
SIGMETs :   Varie  Temporali  Ghiacco  Turbolenza  Onda orograficha  Ceneri Vulcaniche






- Altitudine del aeroporto : 101 ft
- Codice IATA : HAD


ESMT - Halmstad

ULTIMO METAR :
  • 171420Z AUTO 16006KT 120V190 9999 NCD 07/04 Q1016

METARs OBSOLETI :
  • 171350Z 18007KT 9999 BKN013 06/04 Q1016
  • 171320Z 19006KT 9999 BKN013 06/04 Q1016
  • 171250Z 20008KT 9999 BKN012 07/04 Q1016
  • 171220Z AUTO 20009KT 9999 SCT012/// 06/04 Q1016
  • 171150Z AUTO 20011KT 9999 OVC011/// 07/04 Q1016

TAF TAF ESMT
Valido dal 17 a 15 ore il 17 a 22 ore UTC


171409Z 1715/1722 15010KT 7000 SCT010
TEMPO 1715/1722 BKN010
BECMG 1715/1717 08008KT



MetMap, La meteo Aeronautica in un colpo d'occhio ! - Copyright ORBIFLY Dicembre 2007 - Disclaimer

ORBIFLY MET'MAP TEAM :

Programmazione e sviluppo : Alexandra Zaïnal
Concezione e sviluppo : Baudouin d'Aumeries
Co-Programmazione e sviluppo : Marc-Olivier Méhu
Supporto tecnico e logistico : Manuel Goepfert
Aiuto per la traduzione : Arnaldo La Scala

Contatto : metmap@orbifly.com




FONTI E CREDITI :

   NOAA